Howe, Indiana
Current Conditions -  °F | °C
As of 8:35 PM on Saturday 25 Oct 2014 (Local Time) from KIRS Reporting Station
Clear Clear  
Wind Chill: 57°   Ceiling: Unl
Heat Index: 57°   Visibility: 10mi
Dew Point: 36°   Wind: 6mph
Humidity: 44%   Direction: 300°WNW
Pressure: 29.87"   Gusts: NA
Location:  41.72°N, 85.42°W
Report Text: KIRS 260035Z AUTO 30005KT 10SM CLR 14/02 A2987 RMK AO2
Loading
Personal Weather Stations






























Interactive Weather Map
Tropical Storm Tracking
New forecast layout! Learn more

10-Day Weather Forecast

Advertisements
Track Severe Weather on mobile